Latest Weather Observations for Parkes Airport

IDN60801

Issued at 7:12 am EDT Monday 3 October 2022 (issued every 10 minutes, with the page automatically refreshed every 10 minutes)

About weather observations | Map of weather stations | Latest weather observations for NSW | Other Formats
Station Details ID: 065068 Name: PARKES AIRPORT AWS Lat: -33.13 Lon: 148.24 Height: 323.3 m
Data from the previous 72 hours. | See also: Recent months at Parkes Airport
Date/Time
EDT
Temp
°C
App
Temp
°C
Dew
Point
°C
Rel
Hum
%
Delta-T
°C
Wind Press
QNH
hPa
Press
MSL
hPa
Rain since
9am
mm
Dir  Spd
km/h
Gust
km/h
Spd
kts
Gust
kts
03/07:00am 3.0 1.4 2.4 96 0.2 CALM 0 0 0 0 1021.0 1020.4 0.0
03/06:30am 3.0 0.1 2.6 97 0.2 ESE 7 11 4 6 1020.7 1020.1 0.0
03/06:00am 2.5 0.4 1.6 94 0.4 NE 2 7 1 4 1020.3 1019.8 0.0
03/05:30am 3.7 0.9 3.1 96 0.2 NE 7 9 4 5 1020.0 1019.5 0.0
03/05:00am 3.5 0.7 3.1 97 0.2 NE 7 9 4 5 1019.6 1019.1 0.0
03/04:30am 3.4 0.5 2.8 96 0.2 N 7 9 4 5 1019.3 1018.7 0.0
03/04:00am 3.6 0.3 2.6 93 0.4 NNW 9 9 5 5 1019.1 1018.5 0.0
03/03:30am 5.1 1.7 4.2 94 0.4 ENE 11 13 6 7 1019.0 1018.4 0.0
03/03:00am 4.3 1.2 3.4 94 0.4 NNE 9 11 5 6 1019.3 1018.7 0.0
03/02:30am 5.3 1.6 4.3 93 0.4 ENE 13 17 7 9 1019.5 1019.0 0.0
03/02:00am 5.0 1.3 4.3 95 0.3 ENE 13 15 7 8 1020.0 1019.5 0.0
03/01:30am 4.9 1.5 4.2 95 0.3 ENE 11 13 6 7 1020.2 1019.7 0.0
03/01:00am 4.7 1.6 3.8 94 0.4 ENE 9 9 5 5 1020.2 1019.7 0.0
03/12:30am 5.4 2.9 4.7 95 0.3 NE 7 9 4 5 1020.3 1019.8 0.0
03/12:00am 5.5 2.9 4.3 92 0.5 NE 7 9 4 5 1020.1 1019.6 0.0
 
Date/Time
EDT
Temp
°C
App
Temp
°C
Dew
Point
°C
Rel
Hum
%
Delta-T
°C
Wind Press
QNH
hPa
Press
MSL
hPa
Rain since
9am
mm
Dir  Spd
km/h
Gust
km/h
Spd
kts
Gust
kts
02/11:30pm 6.3 3.1 5.3 93 0.4 ENE 11 13 6 7 1020.0 1019.5 0.0
02/11:00pm 6.0 4.7 4.3 89 0.7 CALM 0 11 0 6 1019.8 1019.3 0.0
02/10:30pm 7.1 4.9 5.4 89 0.8 NE 6 7 3 4 1019.7 1019.2 0.0
02/10:00pm 7.5 4.0 5.5 87 0.9 ENE 13 13 7 7 1019.5 1019.0 0.0
02/09:30pm 8.2 7.2 5.7 84 1.2 CALM 0 0 0 0 1019.5 1019.0 0.0
02/09:00pm 10.4 6.8 5.2 70 2.4 SSE 13 15 7 8 1019.1 1018.5 0.0
02/08:30pm 10.7 7.3 5.7 71 2.3 SSE 13 17 7 9 1018.6 1018.0 0.0
02/08:00pm 10.6 7.2 5.8 72 2.3 SSE 13 15 7 8 1018.2 1017.6 0.0
02/07:30pm 12.1 9.1 6.2 67 2.8 S 11 13 6 7 1018.0 1017.4 0.0
02/07:00pm 13.3 10.4 6.6 64 3.3 SSW 11 13 6 7 1017.8 1017.2 0.0
02/06:30pm 15.7 11.6 6.2 53 4.7 SSW 17 22 9 12 1017.4 1016.8 0.0
02/06:00pm 16.9 11.6 4.9 45 5.8 SSW 22 28 12 15 1017.0 1016.5 0.0
02/05:30pm 17.6 12.8 4.9 43 6.2 SSW 19 26 10 14 1016.9 1016.4 0.0
02/05:00pm 17.8 13.2 5.4 44 6.1 SSW 19 24 10 13 1016.8 1016.3 0.0
02/04:30pm 17.0 11.8 5.3 46 5.7 S 22 30 12 16 1016.8 1016.3 0.0
02/04:00pm 17.5 12.2 4.8 43 6.2 SSW 22 30 12 16 1016.9 1016.4 0.0
02/03:30pm 17.1 12.3 5.7 47 5.6 SSW 20 28 11 15 1017.1 1016.6 0.0
02/03:00pm 18.0 13.6 7.4 50 5.4 S 20 26 11 14 1017.6 1017.0 0.0
02/02:30pm 17.8 13.7 6.0 46 5.9 S 17 28 9 15 1017.8 1017.2 0.0
02/02:00pm 16.9 12.3 5.5 47 5.6 S 19 24 10 13 1018.2 1017.6 0.0
02/01:30pm 17.6 13.3 7.1 50 5.3 SSW 19 28 10 15 1018.3 1017.7 0.0
02/01:00pm 17.4 13.7 8.0 54 4.8 S 17 24 9 13 1018.6 1018.0 0.0
02/12:30pm 16.7 13.0 8.1 57 4.4 SSW 17 30 9 16 1018.9 1018.3 0.0
02/12:00pm 16.5 13.5 7.7 56 4.5 SW 13 19 7 10 1019.4 1018.9 0.0
02/11:30am 15.8 14.7 7.1 56 4.4 N 2 9 1 5 1019.7 1019.2 0.0
02/11:00am 15.2 13.1 6.7 57 4.2 W 7 11 4 6 1020.0 1019.5 0.0
02/10:30am 15.0 13.3 7.5 61 3.8 NNW 6 11 3 6 1020.3 1019.8 0.0
02/10:00am 14.5 12.2 7.3 62 3.6 E 9 13 5 7 1020.2 1019.7 0.0
02/09:30am 13.4 10.9 6.5 63 3.4 E 9 15 5 8 1020.4 1019.9 0.0
02/09:00am 12.8 10.2 7.7 71 2.5 ESE 11 17 6 9 1020.4 1019.9 21.0
02/08:30am 10.2 8.9 9.1 93 0.6 SW 6 7 3 4 1020.1 1019.6 21.0
02/08:00am 7.4 5.4 7.3 99 0.0 SW 7 9 4 5 1019.8 1019.3 21.0
02/07:30am 5.5 4.0 5.2 98 0.1 SW 2 9 1 5 1019.7 1019.2 21.0
02/07:00am 4.2 2.8 3.6 96 0.3 CALM 0 0 0 0 1019.4 1018.9 21.0
02/06:30am 4.4 3.0 3.7 95 0.3 CALM 0 0 0 0 1019.0 1018.4 21.0
02/06:00am 5.1 2.7 4.2 94 0.4 SW 6 7 3 4 1018.9 1018.3 21.0
02/05:30am 5.4 2.5 4.4 93 0.4 SSW 9 11 5 6 1018.8 1018.2 21.0
02/05:00am 5.8 3.0 3.3 84 1.1 SE 7 11 4 6 1018.4 1017.8 21.0
02/04:30am 8.7 4.9 5.6 81 1.4 ENE 15 20 8 11 1018.3 1017.7 21.0
02/04:00am 9.0 4.5 5.9 81 1.4 ENE 19 24 10 13 1018.2 1017.6 21.0
02/03:30am 9.1 4.7 6.4 83 1.3 NE 19 24 10 13 1018.4 1017.8 21.0
02/03:00am 8.3 4.2 6.4 88 0.9 NE 17 22 9 12 1018.6 1018.0 21.0
02/01:30am 6.5 4.7 5.5 93 0.5 NE 4 9 2 5 1018.8 1018.2 21.0
02/01:00am 6.5 4.2 5.5 93 0.5 NNE 7 9 4 5 1019.1 1018.5 21.0
02/12:30am 6.7 5.0 5.8 94 0.4 SE 4 7 2 4 1019.3 1018.7 21.0
02/12:00am 7.3 4.6 5.6 89 0.8 NNE 9 13 5 7 1019.5 1019.0 21.0
 
Date/Time
EDT
Temp
°C
App
Temp
°C
Dew
Point
°C
Rel
Hum
%
Delta-T
°C
Wind Press
QNH
hPa
Press
MSL
hPa
Rain since
9am
mm
Dir  Spd
km/h
Gust
km/h
Spd
kts
Gust
kts
01/11:30pm 8.5 5.6 6.5 87 0.9 E 11 13 6 7 1019.6 1019.1 21.0
01/11:00pm 9.0 6.2 7.1 88 0.9 ENE 11 13 6 7 1019.6 1019.1 21.0
01/10:30pm 10.4 7.4 7.8 84 1.3 ENE 13 19 7 10 1019.6 1019.1 21.0
01/10:00pm 9.8 8.0 8.1 89 0.8 N 7 11 4 6 1019.8 1019.3 21.0
01/09:30pm 10.7 7.9 8.6 87 1.1 ENE 13 17 7 9 1019.6 1019.1 21.0
01/09:00pm 10.5 8.5 8.8 89 0.9 E 9 13 5 7 1019.8 1019.3 21.0
01/08:30pm 11.0 8.8 9.4 90 0.8 E 11 13 6 7 1019.5 1019.0 21.0
01/08:00pm 11.2 8.8 10.0 92 0.6 E 13 15 7 8 1019.3 1018.7 21.0
01/07:30pm 11.1 9.1 10.0 93 0.6 E 11 15 6 8 1019.0 1018.4 21.0
01/07:00pm 11.4 9.1 10.5 94 0.5 E 13 13 7 7 1019.0 1018.4 21.0
01/06:30pm 11.7 10.6 10.1 90 0.8 WSW 6 9 3 5 1019.0 1018.4 20.8
01/06:00pm 11.8 10.3 10.7 93 0.6 E 9 11 5 6 1019.1 1018.5 20.8
01/05:30pm 12.2 9.9 10.6 90 0.8 SE 13 15 7 8 1019.2 1018.6 20.8
01/05:00pm 12.4 10.6 10.8 90 0.8 SSW 11 17 6 9 1019.2 1018.6 20.8
01/04:30pm 11.8 10.4 10.9 94 0.5 ENE 9 15 5 8 1018.8 1018.2 20.8
01/04:00pm 11.4 9.4 10.1 92 0.7 N 11 15 6 8 1019.0 1018.4 20.6
01/03:30pm 11.3 7.6 10.0 92 0.7 NNE 20 24 11 13 1018.8 1018.2 18.6
01/03:00pm 11.4 9.0 10.1 92 0.7 NNE 13 17 7 9 1019.3 1018.7 15.6
01/02:45pm 11.4 8.6 10.0 91 0.7 NE 15 19 8 10 1019.3 1018.7 14.6
01/02:44pm 11.3 8.5 9.9 91 0.7 NE 15 19 8 10 1019.3 1018.7 14.6
01/02:33pm 11.5 9.7 9.4 87 1.1 N 9 13 5 7 1019.3 1018.7 13.0
01/02:32pm 11.5 9.7 9.4 87 1.1 N 9 13 5 7 1019.3 1018.7 13.0
01/02:30pm 11.5 9.6 9.2 86 1.2 NNE 9 13 5 7 1019.3 1018.7 13.0
01/02:16pm 12.0 8.1 8.5 79 1.8 NE 19 32 10 17 1019.4 1018.9 7.4
01/02:10pm 13.2 9.5 9.3 77 2.0 NNE 19 26 10 14 1019.3 1018.7 2.2
01/02:03pm 14.4 11.3 8.8 69 2.9 N 15 26 8 14 1019.0 1018.4 0.0
01/02:00pm 15.0 12.2 8.5 65 3.3 N 13 26 7 14 1019.0 1018.4 0.0
01/01:53pm 15.9 13.7 7.9 59 4.1 N 9 19 5 10 1019.1 1018.5 0.0
01/01:30pm 17.4 15.0 6.9 50 5.3 SSE 9 13 5 7 1019.4 1018.9 0.0
01/01:00pm 17.5 14.6 8.1 54 4.9 S 13 19 7 10 1019.9 1019.4 0.0
01/12:30pm 18.0 15.9 6.5 47 5.8 S 7 19 4 10 1020.3 1019.8 0.0
01/12:00pm 18.7 16.9 8.1 50 5.5 E 7 20 4 11 1020.8 1020.2 0.0
01/11:30am 18.4 16.0 6.9 47 5.9 E 9 17 5 9 1021.4 1020.8 0.0
01/11:00am 18.1 15.0 8.7 54 4.9 ESE 15 24 8 13 1021.9 1021.3 0.0
01/10:30am 17.3 14.4 8.2 55 4.7 E 13 22 7 12 1022.2 1021.7 0.0
01/10:00am 16.8 13.3 7.4 54 4.8 E 15 24 8 13 1022.4 1021.9 0.0
01/09:30am 16.4 13.1 7.9 57 4.4 ESE 15 22 8 12 1022.7 1022.7 0.0
01/09:00am 15.6 11.1 6.9 56 4.3 E 20 28 11 15 1022.8 1022.8 0.0
01/08:30am 15.0 10.5 7.1 59 3.9 E 20 26 11 14 1022.9 1022.9 0.0
01/08:00am 14.2 9.7 6.8 61 3.6 E 20 26 11 14 1022.8 1022.8 0.0
01/07:30am 13.6 10.2 7.6 67 3.0 E 15 20 8 11 1022.7 1022.7 0.0
01/07:00am 10.7 10.0 6.8 77 1.9 CALM 0 2 0 1 1022.5 1022.5 0.0
01/06:30am 10.7 8.3 7.2 79 1.7 E 9 13 5 7 1022.3 1022.3 0.0
01/06:00am 9.9 6.2 6.3 78 1.7 E 15 19 8 10 1021.9 1021.8 0.0
01/05:30am 9.9 5.8 6.3 78 1.7 E 17 20 9 11 1021.6 1021.5 0.0
01/05:00am 9.6 6.5 7.2 85 1.2 ESE 13 19 7 10 1021.5 1021.4 0.0
01/04:30am 7.3 5.0 5.8 90 0.7 SSW 7 11 4 6 1021.5 1021.4 0.0
01/04:00am 8.0 7.2 6.3 89 0.8 CALM 0 6 0 3 1021.4 1021.3 0.0
01/03:30am 8.0 5.9 6.8 92 0.6 SE 7 11 4 6 1021.6 1021.5 0.0
01/03:00am 7.1 4.7 5.3 88 0.8 ESE 7 11 4 6 1021.7 1021.6 0.0
01/02:30am 7.9 5.8 5.9 87 0.9 SSE 6 7 3 4 1021.8 1021.7 0.0
01/02:00am 8.6 6.4 6.4 86 1.0 SSW 7 9 4 5 1021.9 1021.8 0.0
01/01:30am 7.9 6.9 5.7 86 1.0 CALM 0 0 0 0 1022.2 1022.2 0.0
01/01:00am 9.8 7.0 6.9 82 1.4 SE 11 15 6 8 1022.3 1022.3 0.0
01/12:30am 9.1 8.2 6.0 81 1.4 CALM 0 0 0 0 1022.5 1022.5 0.0
01/12:00am 10.3 8.4 6.5 77 1.8 SSE 6 9 3 5 1022.7 1022.7 0.0
 
Date/Time
EDT
Temp
°C
App
Temp
°C
Dew
Point
°C
Rel
Hum
%
Delta-T
°C
Wind Press
QNH
hPa
Press
MSL
hPa
Rain since
9am
mm
Dir  Spd
km/h
Gust
km/h
Spd
kts
Gust
kts
30/11:30pm 11.1 9.2 6.6 74 2.2 ESE 6 9 3 5 1022.7 1022.7 0.0
30/11:00pm 12.0 8.8 6.9 71 2.5 ESE 13 17 7 9 1022.5 1022.5 0.0
30/10:30pm 12.7 8.3 7.2 69 2.7 E 20 28 11 15 1022.5 1022.5 0.0
30/10:00pm 11.4 8.6 7.1 75 2.1 ESE 11 17 6 9 1022.6 1022.6 0.0
30/09:30pm 11.0 8.9 8.4 84 1.3 E 9 11 5 6 1022.8 1022.8 0.0
30/09:00pm 10.9 9.2 8.5 85 1.2 ENE 7 9 4 5 1022.8 1022.8 0.0
30/08:30pm 10.8 9.2 8.2 84 1.3 NE 6 7 3 4 1022.7 1022.7 0.0
30/08:00pm 11.9 10.1 7.8 76 2.0 ESE 7 9 4 5 1022.6 1022.6 0.0
30/07:30pm 12.1 9.8 7.4 73 2.3 ESE 9 11 5 6 1022.2 1022.2 0.0
30/07:00pm 13.4 10.4 7.6 68 2.9 SE 13 15 7 8 1022.0 1021.9 0.0
30/06:30pm 14.0 10.9 7.1 63 3.4 SE 13 17 7 9 1021.8 1021.7 0.0
30/06:00pm 16.7 12.2 6.8 52 5.0 ESE 20 28 11 15 1022.0 1021.9 0.0
30/05:30pm 17.3 13.7 8.4 56 4.6 SE 17 30 9 16 1021.9 1021.8 0.0
30/05:00pm 18.3 14.3 8.3 52 5.2 SSE 19 28 10 15 1021.9 1021.8 0.0
30/04:30pm 18.9 14.4 8.6 51 5.4 SE 22 30 12 16 1021.9 1021.8 0.0
30/04:00pm 18.6 14.4 8.3 51 5.4 SSE 20 28 11 15 1022.0 1021.9 0.0
30/03:30pm 19.0 13.9 7.8 48 5.8 S 24 33 13 18 1022.1 1022.1 0.0
30/03:00pm 19.1 14.4 7.8 48 5.9 SSE 22 32 12 17 1022.1 1022.1 0.0
30/02:30pm 19.2 14.7 6.0 42 6.6 SSE 19 26 10 14 1022.1 1022.1 0.0
30/02:00pm 21.2 20.0 9.4 47 6.4 SSE 6 24 3 13 1022.3 1022.3 0.0
30/01:30pm 20.0 17.8 7.7 45 6.4 ESE 9 20 5 11 1022.5 1022.5 0.0
30/01:00pm 19.3 16.6 7.4 46 6.1 SE 11 22 6 12 1022.7 1022.7 0.0
30/12:30pm 19.4 16.0 7.8 47 6.0 SE 15 24 8 13 1022.8 1022.8 0.0
30/12:00pm 19.2 15.6 8.5 50 5.6 SE 17 28 9 15 1023.3 1023.3 0.0
30/11:30am 18.3 14.8 7.4 49 5.6 ESE 15 26 8 14 1024.1 1024.0 0.0
30/11:00am 17.9 13.9 8.2 53 5.0 ESE 19 30 10 16 1024.4 1024.3 0.0
30/10:30am 17.0 12.5 7.1 52 5.0 SE 20 30 11 16 1024.8 1024.8 0.0
30/10:00am 16.7 12.9 7.4 54 4.7 SE 17 22 9 12 1025.0 1025.0 0.0
30/09:30am 16.4 11.8 8.1 58 4.3 ESE 22 30 12 16 1024.8 1024.8 0.0
30/09:00am 15.4 10.1 6.9 57 4.2 ESE 24 33 13 18 1025.1 1025.1 0.0
30/08:30am 14.8 9.9 7.1 60 3.8 ESE 22 35 12 19 1025.0 1025.0 0.0
30/08:00am 14.3 10.6 8.0 66 3.2 SE 17 22 9 12 1024.7 1024.6 0.0
30/07:30am 11.1 8.8 7.4 78 1.8 WSW 9 11 5 6 1024.4 1024.3 0.0
30/07:00am 9.6 9.0 7.5 87 1.0 CALM 0 0 0 0 1024.3 1024.2 0.0
30/06:30am 8.1 7.1 5.7 85 1.1 CALM 0 6 0 3 1023.9 1023.8 0.0

Other formats

Comma delimited format used in spreadsheet applications
http://www.bom.gov.au/fwo/IDN60801/IDN60801.95717.axf

JavaScript Object Notation format (JSON) in row-major order
http://www.bom.gov.au/fwo/IDN60801/IDN60801.95717.json

Data quality

Most of these data are generated automatically and are frequently updated. Quality checks on data are not normally performed. It is possible for incorrect values to appear. Refer to information at About Latest Weather Observations and please check the disclaimer before using these data.